Strona główna
METAR-TAF:

METAR-TAF

Lotnisko :

Harriman-and-West Airport

North Adams, Massachusetts, Stany Zjednoczone

Szerokość geograficzna: 42-41-50N, Długość geograficzna: 073-10-13W, wysokość: 199 m

Aktualna obserwacja pogody

Raport powstał 1 godzina i 6 minut temu, godzina 10:52 UTC
Wiatr 10 kt od wschodnio-południowy wschód
Temperatura 19°C
Wilgotność 73%
Ciśnienie 1011 hPa
Widzialność: 16.1 km
Przerywane chmury na wysokości 5500 ft
Przerywane chmury na wysokości 8500 ft

METAR: KAQW 251052Z AUTO 11010KT 10SM BKN055 BKN085 19/14 A2984 RMK AO2 SLP103 T01940144

czas: 07:58 (11:58 UTC)


TAF: brakujący

Obserwacja i prognoza pogody dla ponad 4000 lotnisk (raport METAR i TAF).

Dostępne stacje oznaczono żółtymi i czerwonymi punktami na mapie.

Najedź kursorem aby zobaczyć nazwę stacji.

Kliknij aby zobaczyć obserwacje i prognozy pogody.

Aby zmienić mapę: kliknij na zielony przycisk z czarnym krzyżykiem, aby powiększyć; na zielony przycisk z myślnikiem, aby pomniejszyć; na zielone strzałki, aby przejść do map sąsiednich.


METAR-TAF: